Time;durP1;ratioP1;P1;durP2;ratioP2;P2;SDS_P1;SDS_P2;PMS_P1;PMS_P2;Temp;Humidity;BMP_temperature;BMP_pressure;BME280_temperature;BME280_humidity;BME280_pressure;Samples;Min_cycle;Max_cycle;Signal;HPM_P1;HPM_P2
2022/01/10 00:00:33;;;;;;;;;;;4.60;99.90;;;;;;5079676;28;19924;-82
2022/01/10 00:03:08;;;;;;;;;;;4.70;99.90;;;;;;5080083;28;20015;-82
2022/01/10 00:05:41;;;;;;;;;;;4.70;99.90;;;;;;5080148;28;19996;-82
2022/01/10 00:08:14;;;;;;;;;;;4.60;99.90;;;;;;5081474;28;20302;-82
2022/01/10 00:10:52;;;;;;;;;;;4.70;99.90;;;;;;5080368;28;19928;-82
2022/01/10 00:13:26;;;;;;;;;;;4.70;99.90;;;;;;5080238;28;20028;-81
2022/01/10 00:15:53;;;;;;;;;;;4.80;99.90;;;;;;5080286;28;20367;-81
2022/01/10 00:18:29;;;;;;;;;;;4.70;99.90;;;;;;5080309;28;19943;-82
2022/01/10 00:21:01;;;;;;;;;;;4.70;99.90;;;;;;5079951;28;19924;-82
2022/01/10 00:23:29;;;;;;;;;;;4.80;99.90;;;;;;5081708;28;19952;-80
2022/01/10 00:26:09;;;;;;;;;;;4.80;99.90;;;;;;5085901;28;19946;-81
2022/01/10 00:28:43;;;;;;;;;;;5.40;99.90;;;;;;5089457;28;19924;-81
2022/01/10 00:31:23;;;;;;;;;;;5.50;99.90;;;;;;5085056;28;20431;-82
2022/01/10 00:36:43;;;;;;;;;;;4.80;99.90;;;;;;5081079;28;20011;-82
2022/01/10 00:39:10;;;;;;;;;;;4.80;99.90;;;;;;5081205;28;19952;-81
2022/01/10 00:41:41;;;;;;;;;;;4.90;99.90;;;;;;5079700;28;19974;-82
2022/01/10 00:44:12;;;;;;;;;;;5.70;99.90;;;;;;5082058;28;20074;-82
2022/01/10 00:46:43;;;;;;;;;;;4.90;99.90;;;;;;5090136;28;19932;-80
2022/01/10 00:49:16;;;;;;;;;;;4.80;99.90;;;;;;5087058;28;19925;-80
2022/01/10 00:52:04;;;;;;;;;;;4.80;99.90;;;;;;5090717;28;19928;-80
2022/01/10 00:54:32;;;;;;;;;;;4.90;99.90;;;;;;5092347;28;19951;-80
2022/01/10 00:57:01;;;;;;;;;;;4.90;99.90;;;;;;5092542;28;19975;-79
2022/01/10 00:59:51;;;;;;;;;;;4.80;99.90;;;;;;5081488;28;19974;-80
2022/01/10 01:02:25;;;;;;;;;;;5.50;99.90;;;;;;5079089;28;19924;-82
2022/01/10 01:04:55;;;;;;;;;;;6.10;99.90;;;;;;5079465;28;19931;-81
2022/01/10 01:07:25;;;;;;;;;;;4.80;99.90;;;;;;5078847;28;19981;-81
2022/01/10 01:10:17;;;;;;;;;;;4.90;99.90;;;;;;5094402;28;19912;-80
2022/01/10 01:12:52;;;;;;;;;;;4.70;99.90;;;;;;5080750;28;19931;-81
2022/01/10 01:15:29;;;;;;;;;;;6.60;99.90;;;;;;5082532;28;19924;-81
2022/01/10 01:18:18;;;;;;;;;;;5.30;99.90;;;;;;5079842;28;19924;-81
2022/01/10 01:24:00;;;;;;;;;;;4.80;99.90;;;;;;5081196;28;19931;-79
2022/01/10 01:26:30;;;;;;;;;;;7.30;99.90;;;;;;5080918;28;20017;-80
2022/01/10 01:29:01;;;;;;;;;;;4.80;99.90;;;;;;5081834;28;19924;-79
2022/01/10 01:31:34;;;;;;;;;;;4.80;99.90;;;;;;5081964;28;19931;-81
2022/01/10 01:34:06;;;;;;;;;;;4.80;99.90;;;;;;5078972;28;19924;-81
2022/01/10 01:36:36;;;;;;;;;;;4.80;99.90;;;;;;5080416;28;19931;-80
2022/01/10 01:39:10;;;;;;;;;;;4.80;99.90;;;;;;5089961;28;19928;-80
2022/01/10 01:41:42;;;;;;;;;;;4.80;99.90;;;;;;5091694;28;19955;-79
2022/01/10 01:44:10;;;;;;;;;;;4.80;99.90;;;;;;5091975;28;20019;-79
2022/01/10 01:46:38;;;;;;;;;;;4.80;99.90;;;;;;5084891;28;19977;-81
2022/01/10 01:49:14;;;;;;;;;;;4.70;99.90;;;;;;5078696;28;20365;-81
2022/01/10 01:51:44;;;;;;;;;;;4.70;99.90;;;;;;5078882;28;20413;-82
2022/01/10 01:54:20;;;;;;;;;;;4.60;99.90;;;;;;5079193;28;19924;-82
2022/01/10 01:56:55;;;;;;;;;;;4.70;99.90;;;;;;5082064;28;20450;-82
2022/01/10 01:59:29;;;;;;;;;;;5.20;99.90;;;;;;5082488;28;19991;-80
2022/01/10 02:02:05;;;;;;;;;;;4.70;99.90;;;;;;5085337;28;19932;-78
2022/01/10 02:04:36;;;;;;;;;;;4.70;99.90;;;;;;5090088;28;19924;-79
2022/01/10 02:07:08;;;;;;;;;;;4.60;99.90;;;;;;5087389;28;19925;-80
2022/01/10 02:09:41;;;;;;;;;;;4.40;99.90;;;;;;5089923;28;20007;-80
2022/01/10 02:12:23;;;;;;;;;;;4.70;99.90;;;;;;5096509;28;19932;-80
2022/01/10 02:14:53;;;;;;;;;;;5.30;99.90;;;;;;5090610;28;20011;-82
2022/01/10 02:17:33;;;;;;;;;;;4.80;99.90;;;;;;5085148;28;19947;-82
2022/01/10 02:20:01;;;;;;;;;;;2.40;99.90;;;;;;5097451;28;19909;-81
2022/01/10 02:22:34;;;;;;;;;;;4.80;99.90;;;;;;5092555;28;19924;-82
2022/01/10 02:25:11;;;;;;;;;;;4.80;99.90;;;;;;5083596;28;19948;-81
2022/01/10 02:27:40;;;;;;;;;;;5.20;99.90;;;;;;5081552;28;19928;-82
2022/01/10 02:30:16;;;;;;;;;;;4.80;99.90;;;;;;5079682;28;20287;-82
2022/01/10 02:32:52;;;;;;;;;;;4.80;99.90;;;;;;5079314;28;19924;-82
2022/01/10 02:35:35;;;;;;;;;;;5.90;99.90;;;;;;5079186;28;20000;-82
2022/01/10 02:38:09;;;;;;;;;;;3.80;99.90;;;;;;5079270;28;19924;-81
2022/01/10 02:40:40;;;;;;;;;;;4.80;99.90;;;;;;5078471;28;19925;-82
2022/01/10 02:43:08;;;;;;;;;;;4.80;99.90;;;;;;5084455;28;19924;-80
2022/01/10 02:45:37;;;;;;;;;;;4.70;99.90;;;;;;5079713;28;19970;-80
2022/01/10 02:48:04;;;;;;;;;;;4.80;99.90;;;;;;5079478;28;20301;-82
2022/01/10 02:50:32;;;;;;;;;;;4.70;99.90;;;;;;5091786;22;19943;-78
2022/01/10 02:52:58;;;;;;;;;;;4.80;99.90;;;;;;5084544;28;19924;-77
2022/01/10 02:55:25;;;;;;;;;;;4.80;99.90;;;;;;5084903;28;19986;-78
2022/01/10 02:57:51;;;;;;;;;;;4.70;99.90;;;;;;5081450;28;20279;-78
2022/01/10 03:00:19;;;;;;;;;;;4.70;99.90;;;;;;5076249;28;19940;-78
2022/01/10 03:02:49;;;;;;;;;;;4.80;99.90;;;;;;5077739;28;19929;-78
2022/01/10 03:05:16;;;;;;;;;;;4.70;99.90;;;;;;5077532;28;19979;-79
2022/01/10 03:07:44;;;;;;;;;;;4.80;99.90;;;;;;5077978;28;19979;-79
2022/01/10 03:10:11;;;;;;;;;;;4.80;99.90;;;;;;5076810;28;20387;-79
2022/01/10 03:12:37;;;;;;;;;;;4.80;99.90;;;;;;5077580;28;19976;-78
2022/01/10 03:15:04;;;;;;;;;;;4.70;99.90;;;;;;5077107;28;19979;-79
2022/01/10 03:17:31;;;;;;;;;;;4.80;99.90;;;;;;5077120;28;19974;-79
2022/01/10 03:19:57;;;;;;;;;;;4.80;99.90;;;;;;5077179;28;20430;-78
2022/01/10 03:22:26;;;;;;;;;;;4.80;99.90;;;;;;5084833;28;19931;-78
2022/01/10 03:24:54;;;;;;;;;;;4.80;99.90;;;;;;5088370;28;19947;-78
2022/01/10 03:27:20;;;;;;;;;;;4.80;99.90;;;;;;5087313;28;19924;-77
2022/01/10 03:29:47;;;;;;;;;;;4.80;99.90;;;;;;5081545;28;19928;-78
2022/01/10 03:32:13;;;;;;;;;;;4.80;99.90;;;;;;5075554;28;20011;-78
2022/01/10 03:34:40;;;;;;;;;;;4.80;99.90;;;;;;5075985;28;19924;-78
2022/01/10 03:37:06;;;;;;;;;;;4.70;99.90;;;;;;5075817;28;20030;-78
2022/01/10 03:39:33;;;;;;;;;;;4.70;99.90;;;;;;5075416;28;19925;-78
2022/01/10 03:42:01;;;;;;;;;;;4.70;99.90;;;;;;5078030;28;19975;-78
2022/01/10 03:44:27;;;;;;;;;;;4.70;99.90;;;;;;5080458;28;19968;-77
2022/01/10 03:46:56;;;;;;;;;;;4.70;99.90;;;;;;5079198;28;19932;-80
2022/01/10 03:49:22;;;;;;;;;;;4.70;99.90;;;;;;5079740;28;19933;-80
2022/01/10 03:51:49;;;;;;;;;;;4.70;99.90;;;;;;5076759;28;19925;-79
2022/01/10 03:54:15;;;;;;;;;;;4.70;99.90;;;;;;5083290;28;19956;-79
2022/01/10 03:56:42;;;;;;;;;;;4.70;99.90;;;;;;5086910;28;19924;-77
2022/01/10 03:59:10;;;;;;;;;;;4.70;99.90;;;;;;5085122;28;19925;-77
2022/01/10 04:01:39;;;;;;;;;;;4.70;99.90;;;;;;5086904;28;19924;-77
2022/01/10 04:04:05;;;;;;;;;;;4.70;99.90;;;;;;5083718;28;20020;-77
2022/01/10 04:06:32;;;;;;;;;;;4.70;99.90;;;;;;5086546;28;19924;-77
2022/01/10 04:08:58;;;;;;;;;;;4.70;99.90;;;;;;5085233;28;19975;-76
2022/01/10 04:11:25;;;;;;;;;;;4.70;99.90;;;;;;5085876;28;19924;-78
2022/01/10 04:13:51;;;;;;;;;;;4.70;99.90;;;;;;5079718;28;19975;-78
2022/01/10 04:16:19;;;;;;;;;;;4.70;99.90;;;;;;5079665;28;19956;-78
2022/01/10 04:18:45;;;;;;;;;;;4.70;99.90;;;;;;5079449;28;19997;-79
2022/01/10 04:21:12;;;;;;;;;;;4.70;99.90;;;;;;5080750;28;19925;-79
2022/01/10 04:23:38;;;;;;;;;;;4.70;99.90;;;;;;5081046;28;19968;-79
2022/01/10 04:26:05;;;;;;;;;;;4.70;99.90;;;;;;5080807;28;19924;-79
2022/01/10 04:28:31;;;;;;;;;;;4.70;99.90;;;;;;5080546;28;19963;-78
2022/01/10 04:30:58;;;;;;;;;;;4.80;99.90;;;;;;5079960;28;19968;-79
2022/01/10 04:33:29;;;;;;;;;;;4.80;99.90;;;;;;5079948;28;19967;-78
2022/01/10 04:35:56;;;;;;;;;;;4.80;99.90;;;;;;5080237;28;19967;-79
2022/01/10 04:38:22;;;;;;;;;;;4.70;99.90;;;;;;5081508;28;20442;-79
2022/01/10 04:40:49;;;;;;;;;;;4.70;99.90;;;;;;5080850;28;19973;-79
2022/01/10 04:43:15;;;;;;;;;;;4.70;99.90;;;;;;5081406;28;19971;-78
2022/01/10 04:45:42;;;;;;;;;;;4.70;99.90;;;;;;5079855;28;20290;-79
2022/01/10 04:48:09;;;;;;;;;;;4.70;99.90;;;;;;5078354;28;19931;-78
2022/01/10 04:51:09;;;;;;;;;;;4.70;99.90;;;;;;5077993;28;19967;-78
2022/01/10 04:53:31;;;;;;;;;;;4.70;99.90;;;;;;5084448;28;20367;-79
2022/01/10 04:55:57;;;;;;;;;;;4.70;99.90;;;;;;5086402;28;20399;-78
2022/01/10 04:58:23;;;;;;;;;;;4.70;99.90;;;;;;5087476;28;20367;-78
2022/01/10 05:00:51;;;;;;;;;;;4.70;99.90;;;;;;5097405;28;19932;-78
2022/01/10 05:03:17;;;;;;;;;;;4.70;99.90;;;;;;5098296;28;19984;-78
2022/01/10 05:05:45;;;;;;;;;;;4.70;99.90;;;;;;5099382;28;19924;-80
2022/01/10 05:08:12;;;;;;;;;;;4.80;99.90;;;;;;5089478;28;19951;-79
2022/01/10 05:10:38;;;;;;;;;;;4.70;99.90;;;;;;5090694;28;20007;-79
2022/01/10 05:13:05;;;;;;;;;;;4.70;99.90;;;;;;5083736;28;19924;-79
2022/01/10 05:15:31;;;;;;;;;;;4.70;99.90;;;;;;5084366;28;19971;-80
2022/01/10 05:17:58;;;;;;;;;;;4.70;99.90;;;;;;5095345;28;19928;-79
2022/01/10 05:20:24;;;;;;;;;;;4.70;99.90;;;;;;5091885;28;20361;-79
2022/01/10 05:22:52;;;;;;;;;;;4.80;99.90;;;;;;5083696;28;19925;-80
2022/01/10 05:25:18;;;;;;;;;;;4.70;99.90;;;;;;5082568;28;20263;-78
2022/01/10 05:27:45;;;;;;;;;;;4.80;99.90;;;;;;5084063;28;19924;-79
2022/01/10 05:30:11;;;;;;;;;;;4.70;99.90;;;;;;5081340;28;20340;-80
2022/01/10 05:32:38;;;;;;;;;;;4.80;99.90;;;;;;5080427;28;19979;-80
2022/01/10 05:35:04;;;;;;;;;;;4.70;99.90;;;;;;5089447;28;19924;-78
2022/01/10 05:37:31;;;;;;;;;;;4.70;99.90;;;;;;5088260;28;19925;-78
2022/01/10 05:39:59;;;;;;;;;;;4.70;99.90;;;;;;5088697;28;20291;-79
2022/01/10 05:42:25;;;;;;;;;;;4.70;99.90;;;;;;5079903;28;20415;-79
2022/01/10 05:44:52;;;;;;;;;;;4.70;99.90;;;;;;5079815;28;19925;-79
2022/01/10 05:47:19;;;;;;;;;;;4.70;99.90;;;;;;5080144;28;20398;-79
2022/01/10 05:49:48;;;;;;;;;;;4.70;99.90;;;;;;5080062;28;20325;-79
2022/01/10 05:52:14;;;;;;;;;;;4.70;99.90;;;;;;5081477;28;19988;-79
2022/01/10 05:54:41;;;;;;;;;;;4.70;99.90;;;;;;5079783;28;20299;-80
2022/01/10 05:57:09;;;;;;;;;;;4.70;99.90;;;;;;5080195;28;19929;-79
2022/01/10 05:59:35;;;;;;;;;;;4.70;99.90;;;;;;5079895;28;20365;-79
2022/01/10 06:02:01;;;;;;;;;;;4.70;99.90;;;;;;5084605;28;20347;-78
2022/01/10 06:04:30;;;;;;;;;;;4.70;99.90;;;;;;5088535;28;20287;-78
2022/01/10 06:06:57;;;;;;;;;;;4.80;99.90;;;;;;5088953;28;19928;-78
2022/01/10 06:09:23;;;;;;;;;;;4.70;99.90;;;;;;5089006;28;19924;-78
2022/01/10 06:11:50;;;;;;;;;;;4.80;99.90;;;;;;5085242;28;19924;-79
2022/01/10 06:14:17;;;;;;;;;;;4.80;99.90;;;;;;5080004;28;19960;-77
2022/01/10 06:16:44;;;;;;;;;;;4.80;99.90;;;;;;5085550;28;19924;-78
2022/01/10 06:19:10;;;;;;;;;;;4.80;99.90;;;;;;5081715;28;19924;-80
2022/01/10 06:21:37;;;;;;;;;;;4.80;99.90;;;;;;5079141;28;20305;-80
2022/01/10 06:24:03;;;;;;;;;;;4.80;99.90;;;;;;5078736;28;19971;-80
2022/01/10 06:26:30;;;;;;;;;;;4.80;99.90;;;;;;5077627;28;20460;-79
2022/01/10 06:28:56;;;;;;;;;;;4.90;99.90;;;;;;5078153;28;20047;-78
2022/01/10 06:31:24;;;;;;;;;;;4.90;99.90;;;;;;5077871;28;20058;-78
2022/01/10 06:33:51;;;;;;;;;;;4.90;99.90;;;;;;5077347;28;19971;-79
2022/01/10 06:36:17;;;;;;;;;;;4.90;99.90;;;;;;5079591;28;19956;-79
2022/01/10 06:38:44;;;;;;;;;;;5.00;99.90;;;;;;5079438;28;19970;-79
2022/01/10 06:41:10;;;;;;;;;;;4.90;99.90;;;;;;5079625;28;19988;-78
2022/01/10 06:43:37;;;;;;;;;;;4.90;99.90;;;;;;5078858;28;20034;-79
2022/01/10 06:46:04;;;;;;;;;;;5.00;99.90;;;;;;5077629;28;20406;-79
2022/01/10 06:48:31;;;;;;;;;;;5.10;99.90;;;;;;5076884;28;19925;-78
2022/01/10 06:50:58;;;;;;;;;;;5.00;99.90;;;;;;5078560;28;19964;-79
2022/01/10 06:53:24;;;;;;;;;;;5.10;99.90;;;;;;5084577;28;19925;-78
2022/01/10 06:55:51;;;;;;;;;;;5.10;99.90;;;;;;5087714;28;19924;-77
2022/01/10 06:58:18;;;;;;;;;;;5.00;99.90;;;;;;5087581;28;19948;-78
2022/01/10 07:00:44;;;;;;;;;;;5.00;99.90;;;;;;5084027;28;19960;-79
2022/01/10 07:03:11;;;;;;;;;;;5.00;99.90;;;;;;5080915;28;20040;-78
2022/01/10 07:05:38;;;;;;;;;;;5.00;99.90;;;;;;5079542;28;19936;-79
2022/01/10 07:08:05;;;;;;;;;;;5.00;99.90;;;;;;5083320;28;19952;-79
2022/01/10 07:10:32;;;;;;;;;;;5.00;99.90;;;;;;5080810;28;19933;-78
2022/01/10 07:12:58;;;;;;;;;;;5.00;99.90;;;;;;5081004;28;19967;-78
2022/01/10 07:15:26;;;;;;;;;;;5.00;99.90;;;;;;5080051;28;19925;-78
2022/01/10 07:17:53;;;;;;;;;;;5.00;99.90;;;;;;5081800;28;19925;-79
2022/01/10 07:20:20;;;;;;;;;;;5.00;99.90;;;;;;5080214;28;20359;-78
2022/01/10 07:22:48;;;;;;;;;;;5.10;99.90;;;;;;5078791;28;19929;-78
2022/01/10 07:25:15;;;;;;;;;;;5.10;99.90;;;;;;5078724;28;19931;-78
2022/01/10 07:27:41;;;;;;;;;;;5.00;99.90;;;;;;5079367;28;20343;-78
2022/01/10 07:30:08;;;;;;;;;;;5.00;99.90;;;;;;5079168;28;19974;-79
2022/01/10 07:32:35;;;;;;;;;;;5.10;99.90;;;;;;5081048;28;19931;-78
2022/01/10 07:35:01;;;;;;;;;;;5.10;99.90;;;;;;5083670;28;20336;-79
2022/01/10 07:37:27;;;;;;;;;;;5.10;99.90;;;;;;5084948;28;20325;-77
2022/01/10 07:39:55;;;;;;;;;;;5.00;99.90;;;;;;5082234;28;19990;-79
2022/01/10 07:42:22;;;;;;;;;;;5.10;99.90;;;;;;5083854;28;19923;-78
2022/01/10 07:44:48;;;;;;;;;;;5.10;99.90;;;;;;5096315;28;19931;-79
2022/01/10 07:47:15;;;;;;;;;;;5.10;99.90;;;;;;5096558;28;20010;-78
2022/01/10 07:49:41;;;;;;;;;;;5.10;99.90;;;;;;5092407;28;19925;-78
2022/01/10 07:52:08;;;;;;;;;;;5.10;99.90;;;;;;5089953;28;19995;-79
2022/01/10 07:54:34;;;;;;;;;;;5.10;99.90;;;;;;5083465;28;19963;-78
2022/01/10 07:57:02;;;;;;;;;;;5.10;99.90;;;;;;5083112;28;19925;-78
2022/01/10 07:59:29;;;;;;;;;;;5.10;99.90;;;;;;5082007;28;19979;-78
2022/01/10 08:01:55;;;;;;;;;;;5.10;99.90;;;;;;5082556;28;20287;-79
2022/01/10 08:04:22;;;;;;;;;;;5.10;99.90;;;;;;5083973;28;19925;-78
2022/01/10 08:06:49;;;;;;;;;;;5.10;99.90;;;;;;5089691;28;19931;-78
2022/01/10 08:09:15;;;;;;;;;;;5.10;99.90;;;;;;5090953;28;20374;-80
2022/01/10 08:11:42;;;;;;;;;;;5.10;99.90;;;;;;5085682;28;20020;-78
2022/01/10 08:14:09;;;;;;;;;;;5.10;99.90;;;;;;5084083;28;20055;-78
2022/01/10 08:16:36;;;;;;;;;;;5.00;99.90;;;;;;5086330;28;19928;-79
2022/01/10 08:19:03;;;;;;;;;;;5.00;99.90;;;;;;5081411;28;19967;-80
2022/01/10 08:21:29;;;;;;;;;;;5.00;99.90;;;;;;5082319;28;19924;-80
2022/01/10 08:23:56;;;;;;;;;;;5.10;99.90;;;;;;5082169;28;20061;-79
2022/01/10 08:26:22;;;;;;;;;;;5.10;99.90;;;;;;5084887;28;19932;-78
2022/01/10 08:28:48;;;;;;;;;;;5.10;99.90;;;;;;5082888;28;19978;-79
2022/01/10 08:31:16;;;;;;;;;;;5.10;99.90;;;;;;5083957;28;19947;-80
2022/01/10 08:33:45;;;;;;;;;;;5.10;99.90;;;;;;5084575;28;19924;-77
2022/01/10 08:36:12;;;;;;;;;;;5.10;99.90;;;;;;5089469;28;19926;-77
2022/01/10 08:38:38;;;;;;;;;;;5.10;99.90;;;;;;5089489;28;19947;-78
2022/01/10 08:41:05;;;;;;;;;;;5.10;99.90;;;;;;5089496;28;19924;-79
2022/01/10 08:43:31;;;;;;;;;;;5.20;99.90;;;;;;5082125;28;19975;-79
2022/01/10 08:45:58;;;;;;;;;;;5.20;99.90;;;;;;5081752;28;19986;-79
2022/01/10 08:48:25;;;;;;;;;;;5.20;99.90;;;;;;5081345;28;19966;-80
2022/01/10 08:50:53;;;;;;;;;;;5.20;99.90;;;;;;5101460;23;19931;-78
2022/01/10 08:53:20;;;;;;;;;;;5.00;99.90;;;;;;5080932;28;19964;-78
2022/01/10 08:55:47;;;;;;;;;;;5.20;99.90;;;;;;5079515;28;19947;-80
2022/01/10 08:58:14;;;;;;;;;;;5.20;99.90;;;;;;5079352;28;19924;-80
2022/01/10 09:00:40;;;;;;;;;;;5.20;99.90;;;;;;5080642;28;19924;-80
2022/01/10 09:03:10;;;;;;;;;;;5.20;99.90;;;;;;5080927;28;19924;-79
2022/01/10 09:05:38;;;;;;;;;;;5.20;99.90;;;;;;5080890;28;20399;-79
2022/01/10 09:08:05;;;;;;;;;;;5.20;99.90;;;;;;5080739;28;20295;-79
2022/01/10 09:10:31;;;;;;;;;;;5.30;99.90;;;;;;5081155;28;19947;-79
2022/01/10 09:13:00;;;;;;;;;;;5.30;99.90;;;;;;5082112;28;19929;-80
2022/01/10 09:15:27;;;;;;;;;;;5.30;99.90;;;;;;5081715;28;19928;-80
2022/01/10 09:17:54;;;;;;;;;;;5.30;99.90;;;;;;5081961;28;19925;-81
2022/01/10 09:20:20;;;;;;;;;;;5.30;99.90;;;;;;5081899;28;19925;-80
2022/01/10 09:22:48;;;;;;;;;;;5.30;99.90;;;;;;5081975;28;19925;-79
2022/01/10 09:25:15;;;;;;;;;;;5.30;99.90;;;;;;5082597;28;19946;-81
2022/01/10 09:27:42;;;;;;;;;;;5.30;99.90;;;;;;5081933;28;19924;-81
2022/01/10 09:30:09;;;;;;;;;;;5.30;99.90;;;;;;5081810;28;19958;-81
2022/01/10 09:32:36;;;;;;;;;;;5.30;99.90;;;;;;5080234;28;19932;-81
2022/01/10 09:35:03;;;;;;;;;;;5.30;99.90;;;;;;5080018;28;19925;-81
2022/01/10 09:37:29;;;;;;;;;;;5.40;99.90;;;;;;5081264;28;19925;-81
2022/01/10 09:39:57;;;;;;;;;;;5.40;99.90;;;;;;5080761;28;19925;-81
2022/01/10 09:42:24;;;;;;;;;;;5.40;99.90;;;;;;5081100;28;19925;-80
2022/01/10 09:44:50;;;;;;;;;;;5.40;99.90;;;;;;5082345;28;19924;-81
2022/01/10 09:47:17;;;;;;;;;;;5.40;99.90;;;;;;5083247;28;20306;-80
2022/01/10 09:49:43;;;;;;;;;;;5.50;99.90;;;;;;5082851;28;20386;-80
2022/01/10 09:52:10;;;;;;;;;;;5.50;99.90;;;;;;5082006;28;20057;-80
2022/01/10 09:54:37;;;;;;;;;;;5.50;99.90;;;;;;5084805;28;19925;-79
2022/01/10 09:57:05;;;;;;;;;;;5.50;99.90;;;;;;5082514;28;19924;-80
2022/01/10 09:59:32;;;;;;;;;;;5.50;99.90;;;;;;5082420;28;19924;-80
2022/01/10 10:01:58;;;;;;;;;;;5.60;99.90;;;;;;5081162;28;19928;-79
2022/01/10 10:04:25;;;;;;;;;;;5.60;99.90;;;;;;5081147;28;19925;-80
2022/01/10 10:06:52;;;;;;;;;;;5.60;99.90;;;;;;5086457;28;19947;-80
2022/01/10 10:09:18;;;;;;;;;;;5.60;99.90;;;;;;5091084;28;19978;-81
2022/01/10 10:11:46;;;;;;;;;;;5.60;99.90;;;;;;5091899;28;19988;-79
2022/01/10 10:14:17;;;;;;;;;;;5.60;99.90;;;;;;5093745;28;19947;-80
2022/01/10 10:16:49;;;;;;;;;;;5.60;99.90;;;;;;5093973;28;19956;-79
2022/01/10 10:19:16;;;;;;;;;;;5.70;99.90;;;;;;5092756;28;19932;-80
2022/01/10 10:21:43;;;;;;;;;;;5.60;99.90;;;;;;5091987;28;19947;-80
2022/01/10 10:24:09;;;;;;;;;;;5.60;99.90;;;;;;5089325;28;19928;-80
2022/01/10 10:26:36;;;;;;;;;;;5.70;99.90;;;;;;5090491;28;20392;-81
2022/01/10 10:29:02;;;;;;;;;;;5.70;99.90;;;;;;5090588;28;19913;-79
2022/01/10 10:31:33;;;;;;;;;;;5.70;99.90;;;;;;5095685;28;19928;-79
2022/01/10 10:34:02;;;;;;;;;;;5.70;99.90;;;;;;5096212;28;19928;-79
2022/01/10 10:36:31;;;;;;;;;;;5.60;99.90;;;;;;5097373;28;19921;-79
2022/01/10 10:39:02;;;;;;;;;;;5.70;99.90;;;;;;5098197;28;23090;-80
2022/01/10 10:41:29;;;;;;;;;;;5.70;99.90;;;;;;5098602;28;19936;-79
2022/01/10 10:43:56;;;;;;;;;;;5.60;99.90;;;;;;5098020;28;19946;-80
2022/01/10 10:46:26;;;;;;;;;;;5.70;99.90;;;;;;5098818;28;19935;-80
2022/01/10 10:48:58;;;;;;;;;;;5.50;99.90;;;;;;5096028;28;19928;-80
2022/01/10 10:51:27;;;;;;;;;;;5.50;99.90;;;;;;5089724;28;19924;-81
2022/01/10 10:53:55;;;;;;;;;;;5.50;99.90;;;;;;5092294;28;19947;-80
2022/01/10 10:56:22;;;;;;;;;;;5.50;99.90;;;;;;5091910;28;19924;-80
2022/01/10 10:58:48;;;;;;;;;;;5.60;99.90;;;;;;5093017;28;19928;-80
2022/01/10 11:01:15;;;;;;;;;;;5.50;99.90;;;;;;5090950;28;19924;-80
2022/01/10 11:03:41;;;;;;;;;;;5.50;99.90;;;;;;5089644;28;19947;-81
2022/01/10 11:06:10;;;;;;;;;;;5.50;99.90;;;;;;5086713;28;19991;-80
2022/01/10 11:08:38;;;;;;;;;;;5.50;99.90;;;;;;5086282;28;19925;-79
2022/01/10 11:11:05;;;;;;;;;;;5.50;99.90;;;;;;5085938;28;19951;-81
2022/01/10 11:13:37;;;;;;;;;;;5.60;99.90;;;;;;5089020;28;19932;-80
2022/01/10 11:16:04;;;;;;;;;;;5.60;99.90;;;;;;5089490;28;19925;-80
2022/01/10 11:18:33;;;;;;;;;;;5.50;99.90;;;;;;5093991;28;19951;-80
2022/01/10 11:21:00;;;;;;;;;;;5.50;99.90;;;;;;5096250;28;19950;-80
2022/01/10 11:23:28;;;;;;;;;;;5.50;99.90;;;;;;5097359;28;19936;-80
2022/01/10 11:25:57;;;;;;;;;;;5.60;99.90;;;;;;5096561;28;19924;-81
2022/01/10 11:28:25;;;;;;;;;;;5.60;99.90;;;;;;5097549;28;19947;-80
2022/01/10 11:30:53;;;;;;;;;;;5.50;99.90;;;;;;5096959;28;19925;-80
2022/01/10 11:33:21;;;;;;;;;;;5.60;99.90;;;;;;5096361;28;19929;-80
2022/01/10 11:35:49;;;;;;;;;;;5.50;99.90;;;;;;5096276;28;19989;-81
2022/01/10 11:38:25;;;;;;;;;;;5.20;99.90;;;;;;5097136;28;19913;-81
2022/01/10 11:40:54;;;;;;;;;;;5.70;99.90;;;;;;5097651;28;19984;-82
2022/01/10 11:43:31;;;;;;;;;;;5.60;99.90;;;;;;5091666;28;19924;-80
2022/01/10 11:46:09;;;;;;;;;;;5.70;99.90;;;;;;5092905;28;19991;-80
2022/01/10 11:48:42;;;;;;;;;;;5.80;99.90;;;;;;5089379;28;20018;-80
2022/01/10 11:51:12;;;;;;;;;;;5.80;99.90;;;;;;5088214;28;19924;-80
2022/01/10 11:53:41;;;;;;;;;;;5.80;99.90;;;;;;5087802;28;20382;-80
2022/01/10 11:56:19;;;;;;;;;;;5.80;99.90;;;;;;5087368;28;19925;-80
2022/01/10 11:59:06;;;;;;;;;;;5.80;99.90;;;;;;5085935;28;19924;-80
2022/01/10 12:01:34;;;;;;;;;;;5.80;99.90;;;;;;5088723;28;19970;-80
2022/01/10 12:04:00;;;;;;;;;;;5.80;99.90;;;;;;5088491;28;19931;-80
2022/01/10 12:06:27;;;;;;;;;;;5.80;99.90;;;;;;5088191;28;19970;-79
2022/01/10 12:08:54;;;;;;;;;;;5.80;99.90;;;;;;5092841;28;19925;-80
2022/01/10 12:11:23;;;;;;;;;;;5.80;99.90;;;;;;5094368;28;19924;-80
2022/01/10 12:13:51;;;;;;;;;;;5.80;99.90;;;;;;5094330;28;19938;-80
2022/01/10 12:16:18;;;;;;;;;;;5.80;99.90;;;;;;5095003;28;19951;-80
2022/01/10 12:18:44;;;;;;;;;;;5.80;99.90;;;;;;5094363;28;19931;-79
2022/01/10 12:21:11;;;;;;;;;;;5.90;99.90;;;;;;5089824;28;19931;-80
2022/01/10 12:23:37;;;;;;;;;;;6.00;99.90;;;;;;5090870;28;19924;-80
2022/01/10 12:26:04;;;;;;;;;;;5.90;99.90;;;;;;5087489;28;19944;-79
2022/01/10 12:28:34;;;;;;;;;;;5.90;99.90;;;;;;5085760;28;19932;-80
2022/01/10 12:31:02;;;;;;;;;;;5.90;99.90;;;;;;5085154;28;20004;-80
2022/01/10 12:33:29;;;;;;;;;;;5.80;99.90;;;;;;5088216;28;20317;-80
2022/01/10 12:35:55;;;;;;;;;;;5.90;99.90;;;;;;5088578;28;19924;-80
2022/01/10 12:38:22;;;;;;;;;;;5.80;99.90;;;;;;5088225;28;19924;-81
2022/01/10 12:40:49;;;;;;;;;;;5.80;99.90;;;;;;5086006;28;19946;-79
2022/01/10 12:43:15;;;;;;;;;;;5.80;99.90;;;;;;5088024;28;19928;-79
2022/01/10 12:45:44;;;;;;;;;;;5.80;99.90;;;;;;5087976;28;20015;-80
2022/01/10 12:48:11;;;;;;;;;;;5.90;99.90;;;;;;5084244;28;19924;-80
2022/01/10 12:50:38;;;;;;;;;;;5.90;99.90;;;;;;5083795;28;19925;-79
2022/01/10 12:53:05;;;;;;;;;;;5.90;99.90;;;;;;5081101;28;19951;-79
2022/01/10 12:55:32;;;;;;;;;;;5.80;99.90;;;;;;5081707;28;19932;-80
2022/01/10 12:57:58;;;;;;;;;;;5.80;99.90;;;;;;5081949;28;19928;-80
2022/01/10 13:00:25;;;;;;;;;;;5.80;99.90;;;;;;5082736;28;19924;-81
2022/01/10 13:02:53;;;;;;;;;;;5.80;99.90;;;;;;5082635;28;19925;-79
2022/01/10 13:05:20;;;;;;;;;;;5.70;99.90;;;;;;5082144;28;19986;-79
2022/01/10 13:07:49;;;;;;;;;;;5.60;99.90;;;;;;5080798;28;20287;-80
2022/01/10 13:10:21;;;;;;;;;;;5.60;99.90;;;;;;5082204;28;19924;-80
2022/01/10 13:12:49;;;;;;;;;;;5.60;99.90;;;;;;5081487;28;19971;-80
2022/01/10 13:15:15;;;;;;;;;;;5.70;99.90;;;;;;5082740;28;19924;-80
2022/01/10 13:18:00;;;;;;;;;;;5.50;99.90;;;;;;5085478;28;19931;-80
2022/01/10 13:20:28;;;;;;;;;;;5.50;99.90;;;;;;5089425;28;20383;-79
2022/01/10 13:23:03;;;;;;;;;;;5.40;99.90;;;;;;5087797;28;19947;-80
2022/01/10 13:25:34;;;;;;;;;;;5.40;99.90;;;;;;5085425;28;20371;-80
2022/01/10 13:28:03;;;;;;;;;;;5.40;99.90;;;;;;5088092;28;20003;-80
2022/01/10 13:30:30;;;;;;;;;;;5.40;99.90;;;;;;5098698;28;19927;-80
2022/01/10 13:32:58;;;;;;;;;;;5.50;99.90;;;;;;5100141;28;19913;-80
2022/01/10 13:35:25;;;;;;;;;;;5.40;99.90;;;;;;5100169;28;19975;-80
2022/01/10 13:37:57;;;;;;;;;;;5.40;99.90;;;;;;5099515;28;19932;-81
2022/01/10 13:40:25;;;;;;;;;;;5.50;99.90;;;;;;5099640;28;19915;-79
2022/01/10 13:42:59;;;;;;;;;;;5.50;99.90;;;;;;5099491;28;19908;-80
2022/01/10 13:45:39;;;;;;;;;;;5.50;99.90;;;;;;5099372;28;19986;-80
2022/01/10 13:48:08;;;;;;;;;;;5.50;99.90;;;;;;5094598;28;19932;-80
2022/01/10 13:50:34;;;;;;;;;;;5.50;99.90;;;;;;5087669;28;19924;-80
2022/01/10 13:53:02;;;;;;;;;;;5.50;99.90;;;;;;5084432;28;19936;-80
2022/01/10 13:55:29;;;;;;;;;;;5.40;99.90;;;;;;5094442;28;19954;-80
2022/01/10 13:57:55;;;;;;;;;;;5.30;99.90;;;;;;5096892;28;19947;-80
2022/01/10 14:00:23;;;;;;;;;;;5.30;99.90;;;;;;5094928;28;19925;-79
2022/01/10 14:02:51;;;;;;;;;;;5.30;99.90;;;;;;5093153;28;19924;-80
2022/01/10 14:05:26;;;;;;;;;;;5.20;99.90;;;;;;5092478;28;19912;-80
2022/01/10 14:07:53;;;;;;;;;;;5.20;99.90;;;;;;5093400;28;19925;-79
2022/01/10 14:10:21;;;;;;;;;;;5.20;99.90;;;;;;5087082;28;19924;-80
2022/01/10 14:12:47;;;;;;;;;;;5.20;99.90;;;;;;5095916;28;19947;-80
2022/01/10 14:15:14;;;;;;;;;;;5.10;99.90;;;;;;5094381;28;19928;-80
2022/01/10 14:17:40;;;;;;;;;;;5.10;99.90;;;;;;5089192;28;19943;-80
2022/01/10 14:20:07;;;;;;;;;;;5.10;99.90;;;;;;5087260;28;19947;-80
2022/01/10 14:22:35;;;;;;;;;;;5.10;99.90;;;;;;5088464;28;19924;-80
2022/01/10 14:25:02;;;;;;;;;;;5.00;99.90;;;;;;5087446;28;19924;-81
2022/01/10 14:27:30;;;;;;;;;;;5.00;99.90;;;;;;5084432;28;19974;-81
2022/01/10 14:29:57;;;;;;;;;;;5.00;99.90;;;;;;5087577;28;19928;-81
2022/01/10 14:32:24;;;;;;;;;;;4.90;99.90;;;;;;5086490;28;19986;-81
2022/01/10 14:34:51;;;;;;;;;;;4.90;99.90;;;;;;5085887;28;19993;-81
2022/01/10 14:37:17;;;;;;;;;;;4.80;99.90;;;;;;5084706;28;19925;-80
2022/01/10 14:39:45;;;;;;;;;;;4.80;99.90;;;;;;5081057;28;20410;-81
2022/01/10 14:42:12;;;;;;;;;;;4.80;99.90;;;;;;5083515;28;20367;-79
2022/01/10 14:44:38;;;;;;;;;;;4.70;99.90;;;;;;5091283;28;19924;-80